Terminal Aerodrome Forecast
Issued by NWS

Home | Current Version | Previous Version | Graphics & Text | Print | Product List | Glossary On
Versions: 1 2 3 4 5 6 7 8 9 10 11 12 13 14 15 16 17
000
FTUS43 KGRB 230500
TAFATW
TAF
KATW 230520Z 2306/2406 13005KT P6SM SCT100 SCT250
     FM230800 15004KT P6SM SCT070 BKN250
      TEMPO 2308/2312 3SM BR
     FM231500 18007KT P6SM SCT035 OVC050
     FM231900 19009KT 5SM -SHRA OVC020
     FM240100 22004KT 3SM BR OVC012=

USA.gov is the U.S. government's official web portal to all federal, state and local government web resources and services.